Time;durP1;ratioP1;P1;durP2;ratioP2;P2;SDS_P1;SDS_P2;PMS_P1;PMS_P2;Temp;Humidity;BMP_temperature;BMP_pressure;BME280_temperature;BME280_humidity;BME280_pressure;Samples;Min_cycle;Max_cycle;Signal;HPM_P1;HPM_P2
2022/11/29 00:01:17;;;;;;;77.40;19.38;;;10.70;99.90;;;;;;6066295;23;92411;-74
2022/11/29 00:03:44;;;;;;;92.03;19.70;;;10.70;99.90;;;;;;6065778;23;93197;-74
2022/11/29 00:06:14;;;;;;;80.93;19.60;;;10.70;99.90;;;;;;6066522;23;92900;-74
2022/11/29 00:08:42;;;;;;;84.72;19.40;;;10.70;99.90;;;;;;6063959;23;92489;-75
2022/11/29 00:14:05;;;;;;;94.05;19.08;;;10.80;99.90;;;;;;6064481;23;95628;-74
2022/11/29 00:16:32;;;;;;;75.47;18.50;;;10.70;99.90;;;;;;6065839;23;95439;-74
2022/11/29 00:19:00;;;;;;;80.40;17.50;;;10.70;99.90;;;;;;6066174;23;92356;-74
2022/11/29 00:21:26;;;;;;;102.13;18.88;;;10.70;99.90;;;;;;6066108;23;92493;-74
2022/11/29 00:23:54;;;;;;;89.00;19.88;;;10.70;99.90;;;;;;6065614;23;92948;-74
2022/11/29 00:26:22;;;;;;;84.68;18.58;;;10.70;99.90;;;;;;6063940;23;104676;-74
2022/11/29 00:28:49;;;;;;;79.47;18.10;;;10.70;99.90;;;;;;6088516;23;92420;-74
2022/11/29 00:31:17;;;;;;;68.22;17.33;;;10.70;99.90;;;;;;6089392;23;92313;-74
2022/11/29 00:33:44;;;;;;;67.10;17.95;;;10.70;99.90;;;;;;6039367;23;95880;-74
2022/11/29 00:36:12;;;;;;;86.15;18.60;;;10.70;99.90;;;;;;6089066;23;95350;-75
2022/11/29 00:38:39;;;;;;;144.88;21.30;;;10.70;99.90;;;;;;6064588;23;94708;-74
2022/11/29 00:41:07;;;;;;;96.68;19.95;;;10.70;99.90;;;;;;6088481;23;92455;-74
2022/11/29 00:43:34;;;;;;;95.95;20.15;;;10.70;99.90;;;;;;6065886;23;93246;-74
2022/11/29 00:46:02;;;;;;;91.65;19.95;;;10.80;99.90;;;;;;6065636;23;92946;-74
2022/11/29 00:48:29;;;;;;;84.80;20.13;;;10.70;99.90;;;;;;6064502;23;92281;-74
2022/11/29 00:50:56;;;;;;;118.85;21.40;;;10.70;99.90;;;;;;6063926;23;92896;-74
2022/11/29 00:53:23;;;;;;;104.63;19.38;;;10.70;99.90;;;;;;6065505;23;93184;-74
2022/11/29 00:55:51;;;;;;;88.40;19.70;;;10.70;99.90;;;;;;6088557;23;99487;-74
2022/11/29 00:58:19;;;;;;;97.22;20.80;;;10.70;99.90;;;;;;6088785;23;92818;-74
2022/11/29 01:00:46;;;;;;;87.40;19.10;;;10.70;99.90;;;;;;6064249;23;92469;-74
2022/11/29 01:03:14;;;;;;;102.28;21.65;;;10.70;99.90;;;;;;6038150;23;97361;-74
2022/11/29 01:05:42;;;;;;;101.07;19.52;;;10.70;99.90;;;;;;6065664;23;95309;-74
2022/11/29 01:08:10;;;;;;;116.95;20.73;;;10.70;99.90;;;;;;6039718;23;92432;-74
2022/11/29 01:10:37;;;;;;;103.68;20.42;;;10.70;99.90;;;;;;6065920;23;92926;-74
2022/11/29 01:13:04;;;;;;;91.60;17.83;;;10.70;99.90;;;;;;6063985;23;93273;-75
2022/11/29 01:15:31;;;;;;;112.43;21.02;;;10.70;99.90;;;;;;6088355;23;94255;-74
2022/11/29 01:17:58;;;;;;;109.03;19.67;;;10.70;99.90;;;;;;6064052;23;92335;-74
2022/11/29 01:20:25;;;;;;;140.43;21.58;;;10.70;99.90;;;;;;6064707;23;92226;-74
2022/11/29 01:22:52;;;;;;;102.25;20.48;;;10.70;99.90;;;;;;6088130;23;95687;-74
2022/11/29 01:25:19;;;;;;;112.10;20.60;;;10.70;99.90;;;;;;6064966;23;105599;-74
2022/11/29 01:27:46;;;;;;;98.60;21.17;;;10.70;99.90;;;;;;6062978;23;94835;-74
2022/11/29 01:30:14;;;;;;;81.43;18.60;;;10.70;99.90;;;;;;6065778;23;92651;-74
2022/11/29 01:32:41;;;;;;;106.43;19.15;;;10.70;99.90;;;;;;6064210;23;92448;-74
2022/11/29 01:35:10;;;;;;;108.22;19.85;;;10.60;99.90;;;;;;6040088;23;93066;-74
2022/11/29 01:37:37;;;;;;;88.35;18.65;;;10.70;99.90;;;;;;6065823;23;92439;-74
2022/11/29 01:40:04;;;;;;;95.85;19.05;;;10.70;99.90;;;;;;6065509;23;92417;-74
2022/11/29 01:42:31;;;;;;;97.40;19.10;;;10.70;99.90;;;;;;6065648;23;93155;-74
2022/11/29 01:45:23;;;;;;;120.40;19.90;;;10.60;99.90;;;;;;6064129;23;95641;-75
2022/11/29 01:47:54;;;;;;;104.97;20.40;;;10.70;99.90;;;;;;6082358;23;92485;-75
2022/11/29 01:50:22;;;;;;;120.00;21.20;;;10.60;99.90;;;;;;6064276;23;92433;-74
2022/11/29 01:52:49;;;;;;;124.50;21.58;;;10.60;99.90;;;;;;6062512;23;94770;-74
2022/11/29 01:55:16;;;;;;;96.55;20.15;;;10.60;99.90;;;;;;6063445;23;98080;-74
2022/11/29 01:57:43;;;;;;;96.63;19.42;;;10.60;99.90;;;;;;6088404;23;92491;-74
2022/11/29 02:00:14;;;;;;;88.70;18.70;;;10.60;99.90;;;;;;6088129;23;92548;-74
2022/11/29 02:02:57;;;;;;;94.80;19.13;;;10.60;99.90;;;;;;6065578;23;93440;-74
2022/11/29 02:05:24;;;;;;;83.60;18.53;;;10.50;99.90;;;;;;6064952;23;93116;-74
2022/11/29 02:07:55;;;;;;;88.43;19.70;;;10.50;99.90;;;;;;6088491;23;92350;-74
2022/11/29 02:10:36;;;;;;;107.28;19.33;;;10.50;99.90;;;;;;6066161;23;91647;-74
2022/11/29 02:13:20;;;;;;;107.15;20.50;;;10.50;99.90;;;;;;6065217;23;92996;-74
2022/11/29 02:16:10;;;;;;;92.05;19.40;;;10.50;99.90;;;;;;6065548;23;96265;-74
2022/11/29 02:19:09;;;;;;;111.72;21.23;;;10.50;99.90;;;;;;6038433;23;94800;-74
2022/11/29 02:21:45;;;;;;;97.65;20.48;;;10.50;99.90;;;;;;6065647;23;92358;-74
2022/11/29 02:24:31;;;;;;;102.05;21.45;;;10.50;99.90;;;;;;6065084;23;93051;-74
2022/11/29 02:27:44;;;;;;;111.20;20.70;;;10.50;99.90;;;;;;6065183;23;93024;-74
2022/11/29 02:30:25;;;;;;;114.57;21.45;;;10.50;99.90;;;;;;6035057;23;92415;-74
2022/11/29 02:33:28;;;;;;;126.15;21.08;;;10.50;99.90;;;;;;6064118;23;92935;-74
2022/11/29 02:36:14;;;;;;;203.25;22.33;;;10.50;99.90;;;;;;6065400;23;92395;-74
2022/11/29 02:38:52;;;;;;;99.75;20.52;;;10.50;99.90;;;;;;6065777;23;93066;-74
2022/11/29 02:41:44;;;;;;;120.30;21.58;;;10.40;99.90;;;;;;6063805;23;92316;-74
2022/11/29 02:44:20;;;;;;;131.77;21.35;;;10.50;99.90;;;;;;6065207;23;92977;-74
2022/11/29 02:47:15;;;;;;;107.43;20.98;;;10.50;99.90;;;;;;6061888;23;98258;-74
2022/11/29 02:49:42;;;;;;;96.88;20.80;;;10.50;99.90;;;;;;6063693;23;98055;-74
2022/11/29 02:52:23;;;;;;;99.00;21.10;;;10.50;99.90;;;;;;6063617;23;92340;-74
2022/11/29 02:55:14;;;;;;;99.57;21.05;;;10.50;99.90;;;;;;6039398;23;92402;-74
2022/11/29 02:58:13;;;;;;;194.40;23.08;;;10.50;99.90;;;;;;6065259;23;93274;-74
2022/11/29 03:00:49;;;;;;;109.63;21.67;;;10.60;99.90;;;;;;6063517;23;95621;-75
2022/11/29 03:03:25;;;;;;;103.60;19.98;;;10.50;99.90;;;;;;6063529;23;92387;-74
2022/11/29 03:06:04;;;;;;;114.82;20.63;;;10.50;99.90;;;;;;6088507;23;91727;-74
2022/11/29 03:08:35;;;;;;;120.10;21.63;;;10.50;99.90;;;;;;6039224;23;95758;-74
2022/11/29 03:11:06;;;;;;;117.30;20.70;;;10.50;99.90;;;;;;6065008;23;92946;-74
2022/11/29 03:14:07;;;;;;;103.88;20.90;;;10.50;99.90;;;;;;6062114;23;94993;-74
2022/11/29 03:16:37;;;;;;;107.72;19.98;;;10.60;99.90;;;;;;6088410;23;92324;-74
2022/11/29 03:19:33;;;;;;;104.05;20.85;;;10.50;99.90;;;;;;6065602;23;95636;-74
2022/11/29 03:22:30;;;;;;;108.15;21.90;;;10.60;99.90;;;;;;6064854;23;92556;-74
2022/11/29 03:25:05;;;;;;;99.18;19.55;;;10.50;99.90;;;;;;6066360;23;92517;-74
2022/11/29 03:27:37;;;;;;;110.25;20.67;;;10.50;99.90;;;;;;6066490;23;92374;-74
2022/11/29 03:30:10;;;;;;;107.50;20.52;;;10.50;99.90;;;;;;6066256;23;92969;-75
2022/11/29 03:32:42;;;;;;;104.80;20.77;;;10.50;99.90;;;;;;6066697;23;91960;-74
2022/11/29 03:35:19;;;;;;;101.65;21.25;;;10.50;99.90;;;;;;6088403;23;92344;-74
2022/11/29 03:38:02;;;;;;;92.80;20.20;;;10.50;99.90;;;;;;6066394;23;92297;-74
2022/11/29 03:40:40;;;;;;;92.82;18.42;;;10.50;99.90;;;;;;6064432;23;95488;-74
2022/11/29 03:43:49;;;;;;;95.03;19.17;;;10.50;99.90;;;;;;6066106;23;95398;-74
2022/11/29 03:46:39;;;;;;;70.05;17.25;;;10.50;99.90;;;;;;6062643;23;92498;-74
2022/11/29 03:49:28;;;;;;;64.05;17.48;;;10.50;99.90;;;;;;6064784;23;93100;-74
2022/11/29 03:52:11;;;;;;;100.47;20.50;;;10.50;99.90;;;;;;6066206;23;93104;-74
2022/11/29 03:54:47;;;;;;;67.93;17.50;;;10.40;99.90;;;;;;6088886;23;92989;-74
2022/11/29 03:57:19;;;;;;;80.60;17.13;;;10.40;99.90;;;;;;6066067;23;92395;-74
2022/11/29 04:00:03;;;;;;;86.95;19.77;;;10.40;99.90;;;;;;6089554;23;91658;-74
2022/11/29 04:02:45;;;;;;;87.80;19.38;;;10.40;99.90;;;;;;6066123;23;92792;-74
2022/11/29 04:05:32;;;;;;;92.95;19.95;;;10.40;99.90;;;;;;6063972;23;96504;-74
2022/11/29 04:08:22;;;;;;;85.55;18.70;;;10.50;99.90;;;;;;6063375;23;94812;-74
2022/11/29 04:11:26;;;;;;;84.85;18.58;;;10.40;99.90;;;;;;6064686;23;92374;-74
2022/11/29 04:13:56;;;;;;;75.28;19.35;;;10.50;99.90;;;;;;6065967;23;93058;-74
2022/11/29 04:16:39;;;;;;;75.05;19.52;;;10.40;99.90;;;;;;6064205;23;92902;-74
2022/11/29 04:19:43;;;;;;;74.43;19.42;;;10.40;99.90;;;;;;6089115;23;92436;-74
2022/11/29 04:22:50;;;;;;;97.95;20.05;;;10.40;99.90;;;;;;6066113;23;92432;-74
2022/11/29 04:25:53;;;;;;;81.85;18.80;;;10.40;99.90;;;;;;6065679;23;92957;-74
2022/11/29 04:28:26;;;;;;;83.32;18.35;;;10.40;99.90;;;;;;6034842;23;93056;-74
2022/11/29 04:30:55;;;;;;;84.17;19.60;;;10.30;99.90;;;;;;6064659;23;92402;-74
2022/11/29 04:33:44;;;;;;;98.25;20.50;;;10.30;99.90;;;;;;6039730;23;92518;-74
2022/11/29 04:36:47;;;;;;;107.18;20.45;;;10.40;99.90;;;;;;6035304;23;95521;-74
2022/11/29 04:39:32;;;;;;;76.63;18.55;;;10.40;99.90;;;;;;6036659;23;95285;-74
2022/11/29 04:42:27;;;;;;;74.20;18.63;;;10.40;99.90;;;;;;6035332;23;92401;-74
2022/11/29 04:44:57;;;;;;;74.60;18.77;;;10.40;99.90;;;;;;6035392;23;92448;-74
2022/11/29 04:47:39;;;;;;;89.50;19.85;;;10.30;99.90;;;;;;6036475;23;93235;-74
2022/11/29 04:50:19;;;;;;;67.97;18.55;;;10.30;99.90;;;;;;6036712;23;92974;-74
2022/11/29 04:53:19;;;;;;;85.80;21.20;;;10.30;99.90;;;;;;6059607;23;92946;-74
2022/11/29 04:55:58;;;;;;;112.50;20.50;;;10.40;99.90;;;;;;6035870;23;91656;-74
2022/11/29 04:58:36;;;;;;;75.80;20.23;;;10.30;99.90;;;;;;6036477;23;92997;-74
2022/11/29 05:01:28;;;;;;;81.65;18.83;;;10.30;99.90;;;;;;6035317;23;93165;-75
2022/11/29 05:04:19;;;;;;;59.17;17.92;;;10.30;99.90;;;;;;6035499;23;94929;-74
2022/11/29 05:07:12;;;;;;;63.22;16.65;;;10.30;99.90;;;;;;6036933;23;92297;-74
2022/11/29 05:10:17;;;;;;;61.85;17.00;;;10.30;99.90;;;;;;6034485;23;93038;-74
2022/11/29 05:13:01;;;;;;;67.82;18.48;;;10.30;99.90;;;;;;6048601;23;95503;-74
2022/11/29 05:15:59;;;;;;;67.78;18.13;;;10.30;99.90;;;;;;6036679;23;92383;-74
2022/11/29 05:18:34;;;;;;;55.42;16.40;;;10.30;99.90;;;;;;6035177;23;92493;-74
2022/11/29 05:21:16;;;;;;;53.90;17.05;;;10.30;99.90;;;;;;6034998;23;95779;-74
2022/11/29 05:24:02;;;;;;;62.53;17.67;;;10.30;99.90;;;;;;6036819;23;93065;-74
2022/11/29 05:26:42;;;;;;;61.00;17.95;;;10.30;99.90;;;;;;6034776;23;92427;-77
2022/11/29 05:29:20;;;;;;;93.80;18.90;;;10.30;99.90;;;;;;6035312;23;92418;-77
2022/11/29 05:32:13;;;;;;;77.95;18.40;;;10.30;99.90;;;;;;6057479;23;98120;-77
2022/11/29 05:34:58;;;;;;;79.68;18.23;;;10.30;99.90;;;;;;6046796;23;98978;-76
2022/11/29 05:37:50;;;;;;;93.32;20.63;;;10.20;99.90;;;;;;6088653;23;92838;-77
2022/11/29 05:40:17;;;;;;;113.75;20.25;;;10.30;99.90;;;;;;6065882;23;92343;-77
2022/11/29 05:42:46;;;;;;;164.38;23.13;;;10.20;99.90;;;;;;6063891;23;93008;-77
2022/11/29 05:45:39;;;;;;;84.90;19.83;;;10.30;99.90;;;;;;6065476;23;93046;-77
2022/11/29 05:48:16;;;;;;;71.82;19.83;;;10.30;99.90;;;;;;6065784;23;92371;-77
2022/11/29 05:51:40;;;;;;;59.75;17.42;;;10.30;99.90;;;;;;6066027;23;91694;-77
2022/11/29 05:54:24;;;;;;;57.00;16.67;;;10.30;99.90;;;;;;6004756;23;93019;-77
2022/11/29 05:57:00;;;;;;;68.03;17.40;;;10.20;99.90;;;;;;6004920;23;93033;-77
2022/11/29 05:59:29;;;;;;;54.15;16.48;;;10.20;99.90;;;;;;6056103;23;94819;-77
2022/11/29 06:02:30;;;;;;;65.70;17.80;;;10.20;99.90;;;;;;6064225;23;92446;-77
2022/11/29 06:05:13;;;;;;;62.88;18.60;;;10.20;99.90;;;;;;6063807;23;97292;-77
2022/11/29 06:07:43;;;;;;;74.00;18.20;;;10.20;99.90;;;;;;6088059;23;94199;-77
2022/11/29 06:10:34;;;;;;;46.78;15.85;;;10.20;99.90;;;;;;6065544;23;92788;-77
2022/11/29 06:13:21;;;;;;;55.22;16.13;;;10.20;99.90;;;;;;6088609;23;92501;-77
2022/11/29 06:16:14;;;;;;;63.67;17.30;;;10.20;99.90;;;;;;6065247;23;93105;-77
2022/11/29 06:19:46;;;;;;;57.50;16.73;;;10.30;99.90;;;;;;6065703;23;93043;-77
2022/11/29 06:22:35;;;;;;;78.95;17.73;;;10.20;99.90;;;;;;6004872;23;92551;-77
2022/11/29 06:25:15;;;;;;;64.07;18.30;;;10.10;99.90;;;;;;6061929;23;92533;-77
2022/11/29 06:27:48;;;;;;;59.63;17.52;;;10.10;99.90;;;;;;6062033;23;94759;-77
2022/11/29 06:30:21;;;;;;;64.70;18.98;;;10.10;99.90;;;;;;6063559;23;99472;-77
2022/11/29 06:33:11;;;;;;;70.90;18.65;;;10.20;99.90;;;;;;6065363;23;92412;-77
2022/11/29 06:35:38;;;;;;;82.00;18.27;;;10.10;99.90;;;;;;6063313;23;92467;-77
2022/11/29 06:38:28;;;;;;;48.80;14.88;;;10.10;99.90;;;;;;6065167;23;93236;-77
2022/11/29 06:40:57;;;;;;;43.67;15.45;;;10.20;99.90;;;;;;6064977;23;92936;-77
2022/11/29 06:43:28;;;;;;;41.20;15.10;;;10.10;99.90;;;;;;6088428;23;92437;-76
2022/11/29 06:46:24;;;;;;;53.75;15.98;;;10.00;99.90;;;;;;6087832;23;102070;-77
2022/11/29 06:49:13;;;;;;;63.40;16.60;;;10.10;99.90;;;;;;6051053;23;95735;-77
2022/11/29 06:51:58;;;;;;;42.97;16.75;;;10.10;99.90;;;;;;6063040;23;92942;-76
2022/11/29 06:54:28;;;;;;;44.08;16.60;;;10.00;99.90;;;;;;6086829;23;94839;-76
2022/11/29 06:57:27;;;;;;;44.83;15.52;;;10.00;99.90;;;;;;6063499;23;92594;-77
2022/11/29 07:00:03;;;;;;;48.25;16.30;;;10.00;99.90;;;;;;6058962;23;93830;-77
2022/11/29 07:02:52;;;;;;;49.60;16.45;;;10.00;99.90;;;;;;6065347;23;92954;-77
2022/11/29 07:05:29;;;;;;;44.78;16.73;;;10.00;99.90;;;;;;6065241;23;92413;-77
2022/11/29 07:08:03;;;;;;;38.92;14.30;;;10.00;99.90;;;;;;6063548;23;93330;-77
2022/11/29 07:10:35;;;;;;;52.03;16.13;;;10.00;99.90;;;;;;6063580;23;93251;-76
2022/11/29 07:13:02;;;;;;;57.03;16.02;;;10.00;99.90;;;;;;6064288;23;93940;-77
2022/11/29 07:15:30;;;;;;;48.75;16.05;;;10.00;99.90;;;;;;6065193;23;92949;-77
2022/11/29 07:17:59;;;;;;;77.57;17.42;;;10.00;99.90;;;;;;6063244;23;92402;-77
2022/11/29 07:20:45;;;;;;;42.25;16.70;;;10.00;99.90;;;;;;6062013;23;95573;-77
2022/11/29 07:23:25;;;;;;;44.60;15.85;;;10.00;99.90;;;;;;6064997;23;95629;-76
2022/11/29 07:26:15;;;;;;;35.17;15.15;;;10.00;99.90;;;;;;6087636;23;92336;-77
2022/11/29 07:28:54;;;;;;;39.60;15.23;;;10.00;99.90;;;;;;6064833;23;92371;-77
2022/11/29 07:31:44;;;;;;;40.08;15.77;;;9.90;99.90;;;;;;6064958;23;93278;-77
2022/11/29 07:34:35;;;;;;;42.92;15.85;;;10.00;99.90;;;;;;6064361;23;93163;-77
2022/11/29 07:37:29;;;;;;;37.05;14.77;;;9.90;99.90;;;;;;6062957;23;92467;-76
2022/11/29 07:40:11;;;;;;;42.42;15.43;;;9.90;99.90;;;;;;6065130;23;91584;-76
2022/11/29 07:43:06;;;;;;;40.22;15.63;;;9.90;99.90;;;;;;6065004;23;93241;-76
2022/11/29 07:45:37;;;;;;;38.15;15.30;;;9.90;99.90;;;;;;6087711;23;95633;-77
2022/11/29 07:48:05;;;;;;;31.98;14.23;;;9.90;99.90;;;;;;6063294;23;95199;-77
2022/11/29 07:50:34;;;;;;;40.97;15.88;;;9.90;99.90;;;;;;6064932;23;92460;-77
2022/11/29 07:53:01;;;;;;;41.72;16.27;;;9.90;99.90;;;;;;6064441;23;93200;-77
2022/11/29 07:55:30;;;;;;;43.30;15.57;;;9.90;99.90;;;;;;6062582;23;108767;-77
2022/11/29 07:57:57;;;;;;;38.47;14.10;;;10.00;99.90;;;;;;6087026;23;92433;-77
2022/11/29 08:00:24;;;;;;;45.53;16.70;;;10.00;99.90;;;;;;6064761;23;92432;-77
2022/11/29 08:02:51;;;;;;;35.45;15.02;;;10.00;99.90;;;;;;6064263;23;93235;-77
2022/11/29 08:05:18;;;;;;;40.30;15.38;;;10.00;99.90;;;;;;6065351;23;91711;-77
2022/11/29 08:07:46;;;;;;;44.25;15.65;;;10.10;99.90;;;;;;6063755;23;92876;-79
2022/11/29 08:10:15;;;;;;;41.67;15.95;;;10.10;99.90;;;;;;6039863;23;92469;-78
2022/11/29 08:12:44;;;;;;;50.03;16.35;;;10.10;99.90;;;;;;6064299;23;95653;-77
2022/11/29 08:15:12;;;;;;;43.03;15.75;;;10.20;99.90;;;;;;6063948;23;95438;-74
2022/11/29 08:17:39;;;;;;;42.83;16.70;;;10.20;99.90;;;;;;6064413;23;92928;-77
2022/11/29 08:20:08;;;;;;;34.83;14.57;;;10.20;99.90;;;;;;6063696;23;92493;-78
2022/11/29 08:22:35;;;;;;;38.28;14.73;;;10.20;99.90;;;;;;6064145;23;96318;-74
2022/11/29 08:25:03;;;;;;;40.95;15.77;;;10.20;99.90;;;;;;6063555;23;95564;-74
2022/11/29 08:27:30;;;;;;;40.00;16.60;;;10.20;99.90;;;;;;6088538;23;92501;-76
2022/11/29 08:29:57;;;;;;;57.25;17.70;;;10.20;99.90;;;;;;6065991;23;91650;-77
2022/11/29 08:32:25;;;;;;;38.03;15.52;;;10.30;99.90;;;;;;6063226;23;93241;-78
2022/11/29 08:34:52;;;;;;;40.83;14.98;;;10.30;99.90;;;;;;6063493;23;95470;-78
2022/11/29 08:37:19;;;;;;;35.35;14.70;;;10.30;99.90;;;;;;6087182;23;94860;-78
2022/11/29 08:39:46;;;;;;;32.85;13.13;;;10.30;99.90;;;;;;6065963;23;92423;-75
2022/11/29 08:42:12;;;;;;;35.75;14.60;;;10.40;99.90;;;;;;6064069;23;92386;-75
2022/11/29 08:44:39;;;;;;;33.20;14.60;;;10.40;99.90;;;;;;6064078;23;95500;-75
2022/11/29 08:50:02;;;;;;;31.60;13.93;;;10.50;99.90;;;;;;6065912;23;92769;-75
2022/11/29 08:55:24;;;;;;;35.38;14.98;;;10.50;99.90;;;;;;6066336;23;93527;-75
2022/11/29 08:57:52;;;;;;;36.47;15.02;;;10.50;99.90;;;;;;6089249;23;92527;-75
2022/11/29 09:00:22;;;;;;;32.08;13.48;;;10.60;99.90;;;;;;6065954;23;92384;-75
2022/11/29 09:02:49;;;;;;;31.67;12.80;;;10.60;99.90;;;;;;6087170;23;98027;-75
2022/11/29 09:05:16;;;;;;;30.38;12.88;;;10.70;99.90;;;;;;6063862;23;95502;-75
2022/11/29 09:07:45;;;;;;;33.08;13.70;;;10.70;99.90;;;;;;6065772;23;92286;-75
2022/11/29 09:10:12;;;;;;;32.95;14.82;;;10.70;99.90;;;;;;6063138;23;107989;-75
2022/11/29 09:12:39;;;;;;;33.83;13.70;;;10.70;99.90;;;;;;6065714;23;93090;-75
2022/11/29 09:15:08;;;;;;;34.10;13.60;;;10.70;99.90;;;;;;6063664;23;95700;-75
2022/11/29 09:17:35;;;;;;;31.10;13.18;;;10.70;99.90;;;;;;6065865;23;92296;-75
2022/11/29 09:20:03;;;;;;;33.42;13.65;;;10.70;99.90;;;;;;6066194;23;92269;-75
2022/11/29 09:22:30;;;;;;;29.42;12.52;;;10.80;99.90;;;;;;6065666;23;93342;-75
2022/11/29 09:24:57;;;;;;;32.47;14.13;;;10.80;99.90;;;;;;6088224;23;95472;-75
2022/11/29 09:27:24;;;;;;;37.25;15.20;;;10.90;99.90;;;;;;6062540;23;94698;-75
2022/11/29 09:29:51;;;;;;;31.30;13.05;;;10.90;99.90;;;;;;6064403;23;92334;-75
2022/11/29 09:32:18;;;;;;;25.65;12.13;;;11.00;99.90;;;;;;6039563;23;95585;-75
2022/11/29 09:34:45;;;;;;;27.13;13.10;;;11.00;99.90;;;;;;6065262;23;92987;-75
2022/11/29 09:37:12;;;;;;;25.55;12.48;;;11.10;99.90;;;;;;6064007;23;92421;-75
2022/11/29 09:39:40;;;;;;;24.20;12.70;;;11.10;99.90;;;;;;6065816;23;92391;-75
2022/11/29 09:42:17;;;;;;;23.15;11.88;;;11.20;99.90;;;;;;6063994;23;93119;-75
2022/11/29 09:44:58;;;;;;;23.48;11.30;;;11.20;99.90;;;;;;6066159;23;92999;-75
2022/11/29 09:47:41;;;;;;;19.95;11.05;;;11.20;99.90;;;;;;6064063;23;92425;-75
2022/11/29 09:50:18;;;;;;;27.48;12.50;;;11.20;99.90;;;;;;6039857;23;92367;-75
2022/11/29 09:53:30;;;;;;;23.90;12.15;;;11.20;99.90;;;;;;6062388;23;98306;-75
2022/11/29 09:56:15;;;;;;;23.75;11.35;;;11.20;99.90;;;;;;6088327;23;96247;-75
2022/11/29 09:59:03;;;;;;;24.38;11.48;;;11.20;99.90;;;;;;6065688;23;92383;-75
2022/11/29 10:01:38;;;;;;;22.60;11.15;;;11.20;99.90;;;;;;6065964;23;92800;-75
2022/11/29 10:04:15;;;;;;;25.88;11.75;;;11.20;99.90;;;;;;6063882;23;93104;-75
2022/11/29 10:07:02;;;;;;;21.90;11.20;;;11.20;99.90;;;;;;6088485;23;94210;-75
2022/11/29 10:09:36;;;;;;;21.33;10.10;;;11.30;99.90;;;;;;6065814;23;92374;-75
2022/11/29 10:12:17;;;;;;;18.77;9.95;;;11.30;99.90;;;;;;6065946;23;91674;-75
2022/11/29 10:15:03;;;;;;;24.08;10.40;;;11.30;99.90;;;;;;6064585;23;93237;-75
2022/11/29 10:17:43;;;;;;;20.15;9.93;;;11.30;99.90;;;;;;6088418;23;94408;-75
2022/11/29 10:20:15;;;;;;;24.70;10.18;;;11.40;99.90;;;;;;6087503;23;94788;-75
2022/11/29 10:22:56;;;;;;;22.83;9.63;;;11.40;99.90;;;;;;6064099;23;92522;-75
2022/11/29 10:25:44;;;;;;;21.33;9.80;;;11.50;99.90;;;;;;6088907;23;95602;-75
2022/11/29 10:28:18;;;;;;;17.77;8.57;;;11.50;99.90;;;;;;6063961;23;95565;-75
2022/11/29 10:30:46;;;;;;;17.55;8.90;;;11.50;99.90;;;;;;6089281;23;92384;-75
2022/11/29 10:33:34;;;;;;;18.25;9.30;;;11.50;99.90;;;;;;6065922;23;92383;-75
2022/11/29 10:36:18;;;;;;;18.23;8.63;;;11.60;99.90;;;;;;6065785;23;93736;-75
2022/11/29 10:38:48;;;;;;;21.88;8.50;;;11.70;99.90;;;;;;6064917;23;95442;-75
2022/11/29 10:41:20;;;;;;;19.02;8.75;;;11.70;99.90;;;;;;6064380;23;92402;-75
2022/11/29 10:43:49;;;;;;;18.05;9.23;;;11.70;99.90;;;;;;6066278;23;92380;-75
2022/11/29 10:46:37;;;;;;;18.60;9.20;;;11.70;99.90;;;;;;6062783;23;95682;-75
2022/11/29 10:49:09;;;;;;;16.73;8.60;;;11.80;99.90;;;;;;6065869;23;95476;-75
2022/11/29 10:51:37;;;;;;;17.42;9.00;;;11.80;99.90;;;;;;6066356;23;92366;-75
2022/11/29 10:54:27;;;;;;;18.38;8.60;;;11.80;99.90;;;;;;6064445;23;92406;-75
2022/11/29 10:56:57;;;;;;;15.40;8.45;;;11.80;99.90;;;;;;6056473;23;95848;-75
2022/11/29 10:59:27;;;;;;;21.48;9.38;;;11.80;99.90;;;;;;6088227;23;95400;-75
2022/11/29 11:01:54;;;;;;;17.63;9.20;;;11.70;99.90;;;;;;6064427;23;92933;-75
2022/11/29 11:04:24;;;;;;;19.75;9.50;;;11.80;99.90;;;;;;6040456;23;91677;-75
2022/11/29 11:06:58;;;;;;;21.23;9.65;;;11.80;99.90;;;;;;6064226;23;92477;-75
2022/11/29 11:09:28;;;;;;;16.23;8.95;;;11.70;99.90;;;;;;6088400;23;98813;-75
2022/11/29 11:12:02;;;;;;;15.25;8.65;;;11.70;99.90;;;;;;6063115;23;94738;-75
2022/11/29 11:14:36;;;;;;;21.60;10.07;;;11.70;99.90;;;;;;6088761;23;92385;-75
2022/11/29 11:17:21;;;;;;;;;;;11.60;99.90;;;;;;6064015;23;93328;-75
2022/11/29 11:20:04;;;;;;;21.33;9.00;;;11.60;99.90;;;;;;6065791;23;93960;-75
2022/11/29 11:22:32;;;;;;;19.60;9.40;;;11.60;99.90;;;;;;6064376;23;92405;-75
2022/11/29 11:25:07;;;;;;;16.40;8.52;;;11.50;99.90;;;;;;6088482;23;92432;-75
2022/11/29 11:27:38;;;;;;;20.00;9.52;;;11.60;99.90;;;;;;6039452;23;96116;-75
2022/11/29 11:30:19;;;;;;;23.02;9.60;;;11.60;99.90;;;;;;6088957;23;93190;-75
2022/11/29 11:33:16;;;;;;;19.92;9.40;;;11.70;99.90;;;;;;6064435;23;92412;-75
2022/11/29 11:35:43;;;;;;;23.08;9.95;;;11.80;99.90;;;;;;6088575;23;92484;-75
2022/11/29 11:38:16;;;;;;;24.05;9.57;;;11.80;99.90;;;;;;6062846;23;98383;-75
2022/11/29 11:40:44;;;;;;;23.50;10.55;;;11.90;99.90;;;;;;6089776;23;95362;-75
2022/11/29 11:43:19;;;;;;;21.83;9.77;;;11.90;99.90;;;;;;6064927;23;92387;-75
2022/11/29 11:45:53;;;;;;;16.45;9.40;;;12.00;99.90;;;;;;6067053;23;92375;-75
2022/11/29 11:48:21;;;;;;;17.75;9.40;;;12.10;99.90;;;;;;6064628;23;94259;-75
2022/11/29 11:50:55;;;;;;;23.83;9.82;;;12.10;99.90;;;;;;6065465;23;92370;-75
2022/11/29 11:53:51;;;;;;;22.08;10.30;;;12.10;99.90;;;;;;6065219;23;92416;-75
2022/11/29 11:56:18;;;;;;;23.65;9.68;;;12.20;99.90;;;;;;6064789;23;91836;-75
2022/11/29 11:58:55;;;;;;;20.92;9.43;;;12.20;99.90;;;;;;6066745;23;93342;-75
2022/11/29 12:01:25;;;;;;;20.98;10.20;;;12.20;99.90;;;;;;6089628;23;92990;-75
2022/11/29 12:04:11;;;;;;;19.73;10.23;;;12.20;99.90;;;;;;6064959;23;94773;-75
2022/11/29 12:06:47;;;;;;;20.45;9.48;;;12.30;99.90;;;;;;6065899;23;92471;-75
2022/11/29 12:09:39;;;;;;;23.35;10.50;;;12.30;99.90;;;;;;6065033;23;95925;-75
2022/11/29 12:12:30;;;;;;;20.02;10.43;;;12.30;99.90;;;;;;6066064;23;92854;-75
2022/11/29 12:15:05;;;;;;;24.92;10.10;;;12.30;99.90;;;;;;6064717;23;92338;-75
2022/11/29 12:17:38;;;;;;;21.55;10.52;;;12.30;99.90;;;;;;6064418;23;92546;-75
2022/11/29 12:20:17;;;;;;;23.00;10.68;;;12.30;99.90;;;;;;6065930;23;93252;-75
2022/11/29 12:23:05;;;;;;;26.35;10.60;;;12.30;99.90;;;;;;6064792;23;93034;-75
2022/11/29 12:25:50;;;;;;;25.05;10.93;;;12.20;99.90;;;;;;6064439;23;92417;-75
2022/11/29 12:28:19;;;;;;;24.17;11.02;;;12.20;99.90;;;;;;6040262;23;92468;-75
2022/11/29 12:31:17;;;;;;;20.58;10.80;;;12.20;99.90;;;;;;6064402;23;98632;-75
2022/11/29 12:34:09;;;;;;;21.98;9.95;;;12.10;99.90;;;;;;6088668;23;96524;-75
2022/11/29 12:37:12;;;;;;;18.67;9.77;;;12.10;99.90;;;;;;6066535;23;93075;-75
2022/11/29 12:40:27;;;;;;;18.90;9.45;;;12.00;99.90;;;;;;6066762;23;92773;-75
2022/11/29 12:43:25;;;;;;;16.55;10.27;;;11.80;99.90;;;;;;6005983;23;93227;-75
2022/11/29 12:46:18;;;;;;;16.17;9.55;;;11.60;99.90;;;;;;6005391;23;92429;-75
2022/11/29 12:48:54;;;;;;;13.57;7.35;;;11.50;99.90;;;;;;6058652;23;92563;-75
2022/11/29 12:51:30;;;;;;;16.88;10.18;;;11.30;99.90;;;;;;6065555;23;91734;-75
2022/11/29 12:54:31;;;;;;;13.82;10.13;;;11.20;99.90;;;;;;6065912;23;93219;-75
2022/11/29 12:57:33;;;;;;;15.38;10.48;;;11.20;99.90;;;;;;6088876;23;94085;-75
2022/11/29 13:00:15;;;;;;;12.68;9.27;;;11.20;99.90;;;;;;6087400;23;94818;-75
2022/11/29 13:02:55;;;;;;;14.18;9.65;;;11.20;99.90;;;;;;6065039;23;92504;-75
2022/11/29 13:05:32;;;;;;;15.30;10.20;;;11.20;99.90;;;;;;6065214;23;95790;-75
2022/11/29 13:07:59;;;;;;;15.95;10.40;;;11.10;99.90;;;;;;6065788;23;93038;-75
2022/11/29 13:10:44;;;;;;;14.80;9.15;;;11.10;99.90;;;;;;6065719;23;92308;-75
2022/11/29 13:13:41;;;;;;;15.05;10.30;;;11.00;99.90;;;;;;6066690;23;92292;-75
2022/11/29 13:16:38;;;;;;;14.80;10.95;;;11.00;99.90;;;;;;6088629;23;96044;-75
2022/11/29 13:19:12;;;;;;;19.83;11.52;;;11.00;99.90;;;;;;6070892;23;94731;-75
2022/11/29 13:22:03;;;;;;;19.00;11.85;;;10.90;99.90;;;;;;6065712;23;92361;-75
2022/11/29 13:24:47;;;;;;;17.77;12.23;;;10.80;99.90;;;;;;6053786;23;92606;-75
2022/11/29 13:27:25;;;;;;;15.60;11.18;;;10.90;99.90;;;;;;6087088;23;98031;-75
2022/11/29 13:29:52;;;;;;;15.15;10.45;;;10.90;99.90;;;;;;6088322;23;96777;-75
2022/11/29 13:33:10;;;;;;;15.70;11.65;;;10.80;99.90;;;;;;6088592;23;92437;-75